Time;durP1;ratioP1;P1;durP2;ratioP2;P2;SDS_P1;SDS_P2;PMS_P1;PMS_P2;Temp;Humidity;BMP_temperature;BMP_pressure;BME280_temperature;BME280_humidity;BME280_pressure;Samples;Min_cycle;Max_cycle;Signal;HPM_P1;HPM_P2
2023/05/18 00:01:16;;;;;;;3.75;1.40;;;8.30;99.90;;;;;;4993528;28;20302;-66
2023/05/18 00:03:42;;;;;;;6.47;1.52;;;8.30;99.90;;;;;;5001005;28;20073;-67
2023/05/18 00:06:08;;;;;;;2.60;1.50;;;8.20;99.90;;;;;;4999977;28;20030;-67
2023/05/18 00:08:35;;;;;;;4.03;1.67;;;8.10;99.90;;;;;;5002190;28;20607;-67
2023/05/18 00:11:05;;;;;;;10.23;1.85;;;8.00;99.90;;;;;;4996012;28;20329;-67
2023/05/18 00:13:31;;;;;;;3.60;1.42;;;7.90;99.90;;;;;;4988387;28;20027;-67
2023/05/18 00:15:57;;;;;;;3.33;1.43;;;7.80;99.90;;;;;;4991710;28;20100;-67
2023/05/18 00:18:23;;;;;;;5.50;1.83;;;7.80;99.90;;;;;;4996591;28;20036;-67
2023/05/18 00:20:50;;;;;;;9.20;2.13;;;7.70;99.90;;;;;;4992341;28;20377;-67
2023/05/18 00:23:15;;;;;;;;;;;7.70;99.90;;;;;;4997033;28;20389;-67
2023/05/18 00:25:41;;;;;;;14.63;1.95;;;7.60;99.90;;;;;;5003115;28;19957;-67
2023/05/18 00:28:07;;;;;;;8.47;1.83;;;7.60;99.90;;;;;;4984764;28;20489;-67
2023/05/18 00:30:33;;;;;;;7.85;1.80;;;7.60;99.90;;;;;;5008400;28;20349;-67
2023/05/18 00:32:59;;;;;;;11.07;1.30;;;7.60;99.90;;;;;;4995335;28;20037;-68
2023/05/18 00:35:25;;;;;;;6.07;1.80;;;7.60;99.90;;;;;;4983429;28;20731;-68
2023/05/18 00:37:50;;;;;;;2.40;1.30;;;7.50;99.90;;;;;;4994406;28;20425;-67
2023/05/18 00:40:16;;;;;;;5.50;1.60;;;7.50;99.90;;;;;;4985414;28;20089;-68
2023/05/18 00:42:42;;;;;;;5.33;1.87;;;7.50;99.90;;;;;;5011464;28;20480;-68
2023/05/18 00:45:08;;;;;;;5.53;1.50;;;7.50;99.90;;;;;;4994069;28;20022;-68
2023/05/18 00:47:34;;;;;;;6.70;1.52;;;7.40;99.90;;;;;;4996089;28;20299;-68
2023/05/18 00:50:00;;;;;;;9.23;1.40;;;7.50;99.90;;;;;;4994849;28;20042;-68
2023/05/18 00:52:27;;;;;;;4.80;1.30;;;7.40;99.90;;;;;;4995867;28;20035;-67
2023/05/18 00:54:53;;;;;;;5.15;1.38;;;7.40;99.90;;;;;;4989250;28;20032;-68
2023/05/18 00:57:19;;;;;;;6.50;1.40;;;7.40;99.90;;;;;;4997080;28;20057;-68
2023/05/18 00:59:46;;;;;;;3.80;1.50;;;7.40;99.90;;;;;;4995714;28;20739;-67
2023/05/18 01:02:13;;;;;;;4.72;1.50;;;7.40;99.90;;;;;;4994854;28;20618;-67
2023/05/18 01:04:40;;;;;;;11.30;2.15;;;7.40;99.90;;;;;;4996064;28;20322;-68
2023/05/18 01:07:06;;;;;;;6.13;1.70;;;7.40;99.90;;;;;;4995833;28;20025;-67
2023/05/18 01:09:33;;;;;;;4.47;1.77;;;7.40;99.90;;;;;;4998167;28;20460;-68
2023/05/18 01:12:08;;;;;;;3.78;1.90;;;7.40;99.90;;;;;;4994833;28;20030;-67
2023/05/18 01:14:51;;;;;;;7.43;1.70;;;7.40;99.90;;;;;;4994014;28;20046;-67
2023/05/18 01:17:20;;;;;;;6.15;1.48;;;7.40;99.90;;;;;;4994802;28;20014;-67
2023/05/18 01:20:08;;;;;;;3.10;1.40;;;7.40;99.90;;;;;;4994543;28;20422;-68
2023/05/18 01:22:49;;;;;;;10.48;1.80;;;7.40;99.90;;;;;;4984259;28;20153;-68
2023/05/18 01:25:30;;;;;;;5.57;1.27;;;7.40;99.90;;;;;;4982653;28;20057;-67
2023/05/18 01:28:05;;;;;;;4.45;1.60;;;7.40;99.90;;;;;;4984743;28;20022;-67
2023/05/18 01:30:33;;;;;;;7.63;1.80;;;7.40;99.90;;;;;;4995605;28;20358;-67
2023/05/18 01:32:59;;;;;;;5.53;2.03;;;7.40;99.90;;;;;;4992343;28;20368;-68
2023/05/18 01:35:24;;;;;;;6.00;1.53;;;7.40;99.90;;;;;;5008940;28;20022;-68
2023/05/18 01:37:50;;;;;;;5.90;1.63;;;7.40;99.90;;;;;;5001781;28;20334;-68
2023/05/18 01:40:16;;;;;;;7.83;1.73;;;7.40;99.90;;;;;;4999716;28;20165;-68
2023/05/18 01:42:48;;;;;;;6.17;1.67;;;7.40;99.90;;;;;;5003085;28;20026;-67
2023/05/18 01:45:25;;;;;;;7.60;1.90;;;7.40;99.90;;;;;;4994319;28;20113;-67
2023/05/18 01:47:54;;;;;;;;;;;7.50;99.90;;;;;;5001561;28;20030;-67
2023/05/18 01:50:30;;;;;;;6.55;1.60;;;7.60;99.90;;;;;;5006465;28;19906;-67
2023/05/18 01:53:10;;;;;;;9.20;1.77;;;7.60;99.90;;;;;;4994064;28;20030;-67
2023/05/18 01:55:39;;;;;;;12.55;1.85;;;7.60;99.90;;;;;;5007138;28;20025;-67
2023/05/18 01:58:07;;;;;;;5.80;1.75;;;7.70;99.90;;;;;;4996542;28;20026;-68
2023/05/18 02:00:33;;;;;;;12.68;1.77;;;7.70;99.90;;;;;;5002678;28;20108;-67
2023/05/18 02:02:59;;;;;;;;;;;7.60;99.90;;;;;;5002222;28;20034;-67
2023/05/18 02:05:25;;;;;;;6.93;1.83;;;7.60;99.90;;;;;;4994360;28;20233;-67
2023/05/18 02:07:51;;;;;;;5.10;1.80;;;7.60;99.90;;;;;;5002105;28;20435;-67
2023/05/18 02:10:17;;;;;;;11.60;1.67;;;7.70;99.90;;;;;;4989464;28;20059;-67
2023/05/18 02:12:42;;;;;;;10.83;2.33;;;7.70;99.90;;;;;;4991648;28;20077;-67
2023/05/18 02:15:09;;;;;;;8.77;2.03;;;7.80;99.90;;;;;;4993814;28;20057;-67
2023/05/18 02:17:38;;;;;;;7.88;1.85;;;7.80;99.90;;;;;;4994446;28;20032;-66
2023/05/18 02:20:08;;;;;;;5.65;1.75;;;7.90;99.90;;;;;;4995622;28;20031;-67
2023/05/18 02:22:35;;;;;;;8.52;2.08;;;7.90;99.90;;;;;;4982579;28;20031;-67
2023/05/18 02:25:01;;;;;;;7.82;1.58;;;7.90;99.90;;;;;;4993429;28;20034;-67
2023/05/18 02:27:27;;;;;;;2.95;1.50;;;7.90;99.90;;;;;;4994181;28;20073;-67
2023/05/18 02:29:53;;;;;;;8.13;1.70;;;7.90;99.90;;;;;;4990035;28;20050;-67
2023/05/18 02:32:20;;;;;;;1.87;1.40;;;7.90;99.90;;;;;;4994785;28;20034;-68
2023/05/18 02:34:46;;;;;;;17.38;1.90;;;7.90;99.90;;;;;;4991777;28;20433;-67
2023/05/18 02:37:12;;;;;;;9.33;1.80;;;7.80;99.90;;;;;;4993884;28;20065;-67
2023/05/18 02:39:39;;;;;;;9.50;1.73;;;7.80;99.90;;;;;;4999861;28;20096;-67
2023/05/18 02:42:05;;;;;;;5.00;1.73;;;7.80;99.90;;;;;;5001426;28;20524;-67
2023/05/18 02:44:31;;;;;;;6.35;1.70;;;7.80;99.90;;;;;;4993885;28;20038;-67
2023/05/18 02:46:56;;;;;;;9.33;1.97;;;7.80;99.90;;;;;;4994571;28;20030;-67
2023/05/18 02:49:22;;;;;;;8.83;1.53;;;7.80;99.90;;;;;;5001083;28;20018;-67
2023/05/18 02:51:48;;;;;;;12.60;2.53;;;7.90;99.90;;;;;;4993604;28;20031;-66
2023/05/18 02:54:13;;;;;;;7.93;2.07;;;7.80;99.90;;;;;;4994787;28;20422;-67
2023/05/18 02:56:40;;;;;;;9.77;2.70;;;7.80;99.90;;;;;;4994899;28;20026;-67
2023/05/18 02:59:06;;;;;;;;;;;7.90;99.90;;;;;;4992169;28;20049;-67
2023/05/18 03:01:35;;;;;;;8.27;1.90;;;7.90;99.90;;;;;;4994210;28;20320;-67
2023/05/18 03:04:01;;;;;;;6.68;2.00;;;7.80;99.90;;;;;;4993543;28;20030;-67
2023/05/18 03:06:29;;;;;;;6.03;2.30;;;7.70;99.90;;;;;;4994865;28;20039;-67
2023/05/18 03:08:55;;;;;;;7.75;2.10;;;7.70;99.90;;;;;;4993363;28;20317;-67
2023/05/18 03:11:22;;;;;;;6.38;2.15;;;7.70;99.90;;;;;;4999228;28;20022;-67
2023/05/18 03:13:48;;;;;;;10.60;1.70;;;7.70;99.90;;;;;;4989690;28;20034;-67
2023/05/18 03:16:14;;;;;;;7.43;2.30;;;7.60;99.90;;;;;;5000525;28;20068;-67
2023/05/18 03:18:40;;;;;;;4.20;1.67;;;7.60;99.90;;;;;;4997649;28;20418;-67
2023/05/18 03:21:07;;;;;;;8.68;1.90;;;7.50;99.90;;;;;;5004981;28;20313;-67
2023/05/18 03:23:33;;;;;;;5.18;1.65;;;7.50;99.90;;;;;;5006309;28;20103;-67
2023/05/18 03:26:02;;;;;;;11.05;2.03;;;7.40;99.90;;;;;;5000286;28;20472;-67
2023/05/18 03:28:28;;;;;;;11.82;2.15;;;7.40;99.90;;;;;;5006491;28;20048;-67
2023/05/18 03:30:54;;;;;;;11.75;2.65;;;7.30;99.90;;;;;;5002626;28;20030;-68
2023/05/18 03:33:20;;;;;;;11.63;2.17;;;7.20;99.90;;;;;;4998046;28;20033;-67
2023/05/18 03:35:48;;;;;;;6.73;1.90;;;7.20;99.90;;;;;;5004423;28;20034;-67
2023/05/18 03:38:13;;;;;;;9.05;2.25;;;7.10;99.90;;;;;;5009813;28;20278;-68
2023/05/18 03:40:39;;;;;;;5.30;1.90;;;7.00;99.90;;;;;;5009156;28;20033;-68
2023/05/18 03:43:05;;;;;;;15.67;2.70;;;7.00;99.90;;;;;;5005428;28;20381;-68
2023/05/18 03:45:31;;;;;;;8.93;2.60;;;7.00;99.90;;;;;;4997923;28;20394;-67
2023/05/18 03:47:56;;;;;;;8.00;2.23;;;7.00;99.90;;;;;;4998006;28;20392;-67
2023/05/18 03:50:22;;;;;;;12.50;2.13;;;7.00;99.90;;;;;;4997502;28;20018;-67
2023/05/18 03:52:48;;;;;;;3.70;1.93;;;7.00;99.90;;;;;;4997157;28;20037;-68
2023/05/18 03:55:13;;;;;;;7.70;1.73;;;7.00;99.90;;;;;;4997301;28;20034;-67
2023/05/18 03:57:39;;;;;;;4.40;2.30;;;6.90;99.90;;;;;;4997458;28;20101;-68
2023/05/18 04:00:10;;;;;;;6.03;1.77;;;6.90;99.90;;;;;;4999907;28;20113;-84
2023/05/18 04:02:37;;;;;;;8.82;1.65;;;7.00;99.90;;;;;;4997866;28;20030;-68
2023/05/18 04:05:04;;;;;;;6.32;1.80;;;7.00;99.90;;;;;;4998032;28;20291;-67
2023/05/18 04:07:30;;;;;;;5.75;1.95;;;7.10;99.90;;;;;;4997570;28;20025;-67
2023/05/18 04:09:56;;;;;;;10.98;1.80;;;7.20;99.90;;;;;;4997305;28;20489;-66
2023/05/18 04:12:22;;;;;;;8.17;1.73;;;7.20;99.90;;;;;;4997039;28;20110;-67
2023/05/18 04:14:52;;;;;;;5.20;1.60;;;7.20;99.90;;;;;;4997595;28;20315;-67
2023/05/18 04:17:22;;;;;;;9.15;2.00;;;7.20;99.90;;;;;;4996494;28;20045;-67
2023/05/18 04:19:49;;;;;;;8.55;2.00;;;7.20;99.90;;;;;;4987100;28;20026;-68
2023/05/18 04:22:15;;;;;;;4.68;1.90;;;7.30;99.90;;;;;;4996621;28;20429;-67
2023/05/18 04:24:41;;;;;;;9.15;1.90;;;7.20;99.90;;;;;;4997285;28;20061;-68
2023/05/18 04:27:08;;;;;;;6.78;2.13;;;7.10;99.90;;;;;;5002053;28;20014;-68
2023/05/18 04:29:37;;;;;;;6.25;1.88;;;7.00;99.90;;;;;;4996487;28;20022;-68
2023/05/18 04:32:07;;;;;;;9.57;1.85;;;7.00;99.90;;;;;;4997086;28;20153;-68
2023/05/18 04:34:36;;;;;;;6.65;1.90;;;7.10;99.90;;;;;;4994967;28;20026;-68
2023/05/18 04:37:05;;;;;;;4.18;1.98;;;7.10;99.90;;;;;;4997217;28;20031;-67
2023/05/18 04:39:33;;;;;;;9.18;1.80;;;7.10;99.90;;;;;;4993073;28;20169;-68
2023/05/18 04:42:00;;;;;;;4.07;1.65;;;7.20;99.90;;;;;;4997037;28;20057;-67
2023/05/18 04:44:30;;;;;;;7.03;1.45;;;7.20;99.90;;;;;;4996703;28;20026;-68
2023/05/18 04:46:56;;;;;;;4.47;1.90;;;7.20;99.90;;;;;;4996327;28;20075;-68
2023/05/18 04:49:22;;;;;;;4.20;1.77;;;7.20;99.90;;;;;;4995269;28;20050;-68
2023/05/18 04:51:54;;;;;;;8.65;1.80;;;7.20;99.90;;;;;;4996138;28;20030;-67
2023/05/18 04:54:31;;;;;;;5.40;1.60;;;7.30;99.90;;;;;;4996813;28;20031;-68
2023/05/18 04:56:57;;;;;;;8.23;1.58;;;7.20;99.90;;;;;;4996453;28;20326;-68
2023/05/18 04:59:25;;;;;;;6.55;2.00;;;7.20;99.90;;;;;;4996027;28;20109;-67
2023/05/18 05:01:51;;;;;;;5.53;1.75;;;7.20;99.90;;;;;;4995965;28;20041;-67
2023/05/18 05:04:18;;;;;;;8.13;2.53;;;7.20;99.90;;;;;;4996846;28;20077;-68
2023/05/18 05:06:44;;;;;;;4.28;1.90;;;7.20;99.90;;;;;;4996321;28;20362;-67
2023/05/18 05:09:12;;;;;;;5.33;1.67;;;7.30;99.90;;;;;;5001772;28;20025;-67
2023/05/18 05:11:38;;;;;;;4.40;1.70;;;7.30;99.90;;;;;;5001919;28;20030;-76
2023/05/18 05:14:04;;;;;;;10.73;2.20;;;7.40;99.90;;;;;;5010602;28;20409;-68
2023/05/18 05:16:30;;;;;;;10.77;2.03;;;7.50;99.90;;;;;;5012299;28;20153;-68
2023/05/18 05:18:56;;;;;;;6.40;2.30;;;7.50;99.90;;;;;;5008493;28;20476;-67
2023/05/18 05:21:22;;;;;;;9.18;2.03;;;7.60;99.90;;;;;;5004218;28;20022;-68
2023/05/18 05:23:47;;;;;;;7.30;1.93;;;7.70;99.90;;;;;;4998854;28;20030;-68
2023/05/18 05:26:13;;;;;;;8.20;2.37;;;7.80;99.90;;;;;;5000961;28;20030;-67
2023/05/18 05:28:39;;;;;;;7.17;1.87;;;8.00;99.90;;;;;;5004740;28;20302;-71
2023/05/18 05:31:05;;;;;;;11.25;2.65;;;8.00;99.90;;;;;;4995852;28;20643;-68
2023/05/18 05:33:32;;;;;;;9.03;2.33;;;8.00;99.90;;;;;;4997331;28;20034;-67
2023/05/18 05:35:58;;;;;;;14.63;2.60;;;8.10;99.90;;;;;;5004626;28;20026;-67
2023/05/18 05:38:23;;;;;;;11.33;1.93;;;8.20;99.90;;;;;;5012038;28;20033;-67
2023/05/18 05:40:49;;;;;;;7.13;1.87;;;8.20;99.90;;;;;;4996831;28;20477;-67
2023/05/18 05:43:15;;;;;;;13.40;2.73;;;8.20;99.90;;;;;;4999081;28;20044;-67
2023/05/18 05:45:42;;;;;;;5.53;1.80;;;8.20;99.90;;;;;;4994519;28;20038;-67
2023/05/18 05:48:08;;;;;;;5.07;1.73;;;8.20;99.90;;;;;;4993500;28;20061;-68
2023/05/18 05:50:34;;;;;;;11.25;2.63;;;8.20;99.90;;;;;;4994875;28;20018;-67
2023/05/18 05:53:00;;;;;;;11.47;2.33;;;8.30;99.90;;;;;;4992555;28;20497;-67
2023/05/18 05:55:26;;;;;;;7.50;2.60;;;8.30;99.90;;;;;;4994334;28;20037;-68
2023/05/18 05:57:52;;;;;;;7.50;2.20;;;8.40;99.90;;;;;;4995117;28;20034;-67
2023/05/18 06:00:18;;;;;;;5.17;1.80;;;8.40;99.90;;;;;;4994009;28;20312;-67
2023/05/18 06:02:45;;;;;;;12.63;2.22;;;8.50;99.90;;;;;;4992874;28;20271;-82
2023/05/18 06:05:10;;;;;;;9.03;1.83;;;8.60;99.90;;;;;;4988867;28;20089;-68
2023/05/18 06:07:36;;;;;;;6.20;2.47;;;8.60;99.90;;;;;;4994463;28;20264;-67
2023/05/18 06:10:02;;;;;;;8.10;2.43;;;8.70;99.90;;;;;;4995477;28;20406;-66
2023/05/18 06:12:28;;;;;;;10.37;1.83;;;8.80;99.90;;;;;;4994844;28;20320;-80
2023/05/18 06:14:56;;;;;;;14.63;3.60;;;8.90;99.90;;;;;;4995095;28;20050;-67
2023/05/18 06:17:26;;;;;;;7.93;1.92;;;8.90;99.90;;;;;;4993681;28;20033;-67
2023/05/18 06:19:53;;;;;;;9.07;2.08;;;9.00;99.90;;;;;;4995205;28;20053;-68
2023/05/18 06:22:19;;;;;;;;;;;9.10;99.90;;;;;;4995192;28;20033;-67
2023/05/18 06:24:46;;;;;;;7.60;1.27;;;9.10;99.90;;;;;;4995177;28;19952;-67
2023/05/18 06:27:12;;;;;;;14.47;2.17;;;9.20;99.90;;;;;;4994186;28;20057;-66
2023/05/18 06:29:38;;;;;;;7.47;2.33;;;9.30;99.90;;;;;;4996461;28;20337;-66
2023/05/18 06:32:04;;;;;;;9.50;1.43;;;9.30;99.90;;;;;;4994722;28;20427;-66
2023/05/18 06:34:30;;;;;;;10.63;1.77;;;9.40;99.90;;;;;;4995034;28;20026;-66
2023/05/18 06:36:57;;;;;;;7.70;1.83;;;9.40;99.90;;;;;;4994620;28;20034;-82
2023/05/18 06:39:23;;;;;;;11.18;1.50;;;9.50;99.90;;;;;;4998787;28;20023;-65
2023/05/18 06:41:50;;;;;;;7.85;2.33;;;9.60;99.90;;;;;;4996454;28;20058;-66
2023/05/18 06:44:16;;;;;;;13.93;2.30;;;9.50;99.90;;;;;;5010198;28;20061;-66
2023/05/18 06:46:42;;;;;;;7.82;2.15;;;9.50;99.90;;;;;;4999966;28;20022;-66
2023/05/18 06:49:08;;;;;;;12.50;2.07;;;9.30;99.90;;;;;;4994228;28;20306;-67
2023/05/18 06:51:34;;;;;;;6.07;2.20;;;9.40;99.90;;;;;;4997146;28;20030;-66
2023/05/18 06:54:00;;;;;;;5.50;1.77;;;9.30;99.90;;;;;;4992093;28;20042;-67
2023/05/18 06:56:25;;;;;;;8.47;2.10;;;9.40;99.90;;;;;;4990346;28;20062;-66
2023/05/18 06:58:51;;;;;;;12.33;2.10;;;9.40;99.90;;;;;;4996450;28;20038;-65
2023/05/18 07:01:18;;;;;;;5.50;1.73;;;9.40;99.90;;;;;;4996373;28;20018;-66
2023/05/18 07:03:44;;;;;;;2.40;1.75;;;9.40;99.90;;;;;;5011090;28;20034;-67
2023/05/18 07:06:10;;;;;;;5.85;2.00;;;9.40;99.90;;;;;;4994060;28;20034;-66
2023/05/18 07:08:36;;;;;;;6.10;2.03;;;9.40;99.90;;;;;;5000484;28;20034;-66
2023/05/18 07:11:03;;;;;;;4.63;2.20;;;9.40;99.90;;;;;;5006458;28;20054;-69
2023/05/18 07:13:29;;;;;;;;;;;9.50;99.90;;;;;;5005580;28;20113;-66
2023/05/18 07:15:55;;;;;;;7.65;1.77;;;9.60;99.90;;;;;;4980506;28;19917;-66
2023/05/18 07:18:21;;;;;;;4.57;1.80;;;9.70;99.90;;;;;;5003520;28;20033;-67
2023/05/18 07:20:47;;;;;;;14.80;2.23;;;9.70;99.90;;;;;;4998204;28;20154;-67
2023/05/18 07:23:13;;;;;;;5.67;1.93;;;9.90;99.90;;;;;;4996639;28;20768;-66
2023/05/18 07:25:40;;;;;;;10.50;2.38;;;9.90;99.90;;;;;;5002509;28;20038;-66
2023/05/18 07:28:06;;;;;;;7.85;2.20;;;10.00;99.90;;;;;;5026516;28;20456;-66
2023/05/18 07:30:31;;;;;;;6.17;1.97;;;10.10;99.90;;;;;;5004996;28;20030;-66
2023/05/18 07:32:57;;;;;;;7.13;1.70;;;10.20;99.90;;;;;;5004749;28;20362;-66
2023/05/18 07:35:25;;;;;;;9.47;2.27;;;10.30;99.90;;;;;;5017122;28;20045;-66
2023/05/18 07:37:52;;;;;;;17.45;2.15;;;10.30;99.90;;;;;;4995918;28;20049;-67
2023/05/18 07:40:19;;;;;;;8.70;2.60;;;10.30;99.90;;;;;;5013638;28;20314;-66
2023/05/18 07:42:45;;;;;;;9.23;2.28;;;10.40;99.90;;;;;;4998810;28;20033;-66
2023/05/18 07:45:12;;;;;;;7.72;1.83;;;10.30;99.90;;;;;;5000089;28;20620;-66
2023/05/18 07:47:38;;;;;;;8.45;2.25;;;10.30;99.90;;;;;;4998960;28;20109;-66
2023/05/18 07:50:05;;;;;;;14.37;2.63;;;10.20;99.90;;;;;;4999375;28;20033;-66
2023/05/18 07:52:31;;;;;;;11.45;2.42;;;10.20;99.90;;;;;;4994045;28;20026;-66
2023/05/18 07:54:57;;;;;;;5.93;1.73;;;10.20;99.90;;;;;;5005875;28;20429;-66
2023/05/18 07:57:23;;;;;;;9.38;1.85;;;10.30;99.90;;;;;;5008542;28;20437;-66
2023/05/18 07:59:50;;;;;;;5.57;2.05;;;10.30;99.90;;;;;;4994005;28;20038;-66
2023/05/18 08:02:18;;;;;;;7.80;1.75;;;10.30;99.90;;;;;;4999767;28;20487;-66
2023/05/18 08:04:44;;;;;;;3.72;1.38;;;10.20;99.90;;;;;;4998035;28;20034;-66
2023/05/18 08:07:11;;;;;;;8.38;2.25;;;10.20;99.90;;;;;;5002741;28;20421;-65
2023/05/18 08:09:37;;;;;;;13.75;2.03;;;10.30;99.90;;;;;;4993435;28;20042;-65
2023/05/18 08:12:05;;;;;;;7.13;1.90;;;10.30;99.90;;;;;;4998866;28;20030;-66
2023/05/18 08:14:31;;;;;;;8.13;1.75;;;10.20;99.90;;;;;;4994875;28;20057;-67
2023/05/18 08:16:56;;;;;;;11.10;2.15;;;10.20;99.90;;;;;;5009108;28;20030;-66
2023/05/18 08:19:23;;;;;;;10.20;2.00;;;10.50;99.90;;;;;;4997721;28;20093;-66
2023/05/18 08:21:48;;;;;;;11.95;2.50;;;10.50;99.90;;;;;;4997749;28;20030;-66
2023/05/18 08:24:14;;;;;;;5.87;1.93;;;10.60;99.90;;;;;;4996953;28;20034;-66
2023/05/18 08:26:40;;;;;;;5.43;2.30;;;10.50;99.90;;;;;;5009878;28;20455;-67
2023/05/18 08:29:09;;;;;;;9.23;2.27;;;10.50;99.90;;;;;;5005171;28;20018;-66
2023/05/18 08:31:41;;;;;;;8.70;1.95;;;10.50;99.90;;;;;;5016144;28;20026;-67
2023/05/18 08:34:07;;;;;;;8.15;2.22;;;10.50;99.90;;;;;;5005584;28;20392;-65
2023/05/18 08:36:34;;;;;;;10.80;2.25;;;10.30;99.90;;;;;;5007255;28;20041;-66
2023/05/18 08:39:01;;;;;;;16.40;2.70;;;10.20;99.90;;;;;;5007398;28;20448;-66
2023/05/18 08:42:16;;;;;;;6.97;1.85;;;10.10;99.90;;;;;;5004075;28;20077;-65
2023/05/18 08:44:55;;;;;;;8.57;2.03;;;10.10;99.90;;;;;;4991420;28;20030;-67
2023/05/18 08:47:25;;;;;;;14.90;2.45;;;10.10;99.90;;;;;;4998427;28;20034;-67
2023/05/18 08:49:52;;;;;;;9.65;2.13;;;10.20;99.90;;;;;;4992548;28;20042;-67
2023/05/18 08:52:25;;;;;;;7.20;2.80;;;10.30;99.90;;;;;;4979914;28;20058;-66
2023/05/18 08:54:51;;;;;;;12.63;2.33;;;10.30;99.90;;;;;;4990533;28;20034;-65
2023/05/18 08:57:19;;;;;;;;;;;10.30;99.90;;;;;;4993039;28;20022;-67
2023/05/18 08:59:45;;;;;;;5.97;2.38;;;10.30;99.90;;;;;;4992743;28;20222;-66
2023/05/18 09:02:12;;;;;;;11.93;2.05;;;10.20;99.90;;;;;;5001366;28;20025;-67
2023/05/18 09:04:41;;;;;;;6.82;1.83;;;10.20;99.90;;;;;;5002452;28;20414;-66
2023/05/18 09:07:09;;;;;;;5.95;1.83;;;10.10;99.90;;;;;;5004603;28;20112;-66
2023/05/18 09:09:35;;;;;;;8.32;3.22;;;10.30;99.90;;;;;;4997586;28;20023;-67
2023/05/18 09:12:02;;;;;;;10.80;2.40;;;10.30;99.90;;;;;;4998870;28;20037;-67
2023/05/18 09:14:30;;;;;;;11.82;2.50;;;10.50;99.90;;;;;;5007891;28;20045;-67
2023/05/18 09:16:56;;;;;;;14.40;2.42;;;10.70;99.90;;;;;;5002920;28;20041;-66
2023/05/18 09:19:23;;;;;;;11.83;2.27;;;10.80;99.90;;;;;;5005517;28;20029;-66
2023/05/18 09:21:49;;;;;;;11.40;2.80;;;10.80;99.90;;;;;;4996247;28;20026;-66
2023/05/18 09:24:15;;;;;;;12.97;2.87;;;10.70;99.90;;;;;;4996759;28;20023;-66
2023/05/18 09:26:41;;;;;;;14.50;2.27;;;10.60;99.90;;;;;;5002663;28;20026;-66
2023/05/18 09:29:20;;;;;;;6.13;2.43;;;10.70;99.90;;;;;;5002588;28;20069;-66
2023/05/18 09:31:47;;;;;;;4.35;1.92;;;10.80;99.90;;;;;;4989309;28;20049;-66
2023/05/18 09:34:13;;;;;;;;;;;10.90;99.90;;;;;;4997809;28;20436;-67
2023/05/18 09:36:39;;;;;;;10.50;2.70;;;10.80;99.90;;;;;;4994230;28;19920;-75
2023/05/18 09:39:10;;;;;;;9.37;2.43;;;10.70;99.90;;;;;;4995956;28;20341;-66
2023/05/18 09:41:40;;;;;;;6.95;1.90;;;10.70;99.90;;;;;;5001922;28;20029;-66
2023/05/18 09:44:11;;;;;;;11.70;2.42;;;10.70;99.90;;;;;;4998238;28;20311;-65
2023/05/18 09:46:40;;;;;;;14.32;2.20;;;10.80;99.90;;;;;;4993553;28;20077;-67
2023/05/18 09:49:08;;;;;;;7.22;1.90;;;10.80;99.90;;;;;;4995593;28;20062;-67
2023/05/18 09:51:35;;;;;;;2.42;1.85;;;11.10;99.90;;;;;;4995110;28;20114;-66
2023/05/18 09:54:03;;;;;;;6.10;2.47;;;11.20;99.90;;;;;;4995817;28;20073;-68
2023/05/18 09:56:30;;;;;;;13.45;3.15;;;11.40;99.90;;;;;;4993721;28;20073;-66
2023/05/18 09:59:06;;;;;;;7.70;1.75;;;11.60;99.90;;;;;;4995422;28;20035;-66
2023/05/18 10:01:33;;;;;;;5.03;2.17;;;11.70;99.90;;;;;;4988761;28;20426;-65
2023/05/18 10:04:05;;;;;;;4.80;2.00;;;11.50;99.90;;;;;;5005007;28;20038;-65
2023/05/18 10:06:31;;;;;;;9.80;2.13;;;11.50;99.90;;;;;;5006212;28;20038;-65
2023/05/18 10:09:00;;;;;;;11.13;2.60;;;11.60;99.90;;;;;;4998550;28;20024;-65
2023/05/18 10:11:30;;;;;;;7.07;1.60;;;11.50;99.90;;;;;;4994458;28;20030;-66
2023/05/18 10:13:57;;;;;;;8.07;1.98;;;11.50;99.90;;;;;;4992379;28;20025;-65
2023/05/18 10:16:24;;;;;;;5.65;1.90;;;11.50;99.90;;;;;;5004461;28;20049;-65
2023/05/18 10:18:52;;;;;;;;;;;11.50;99.90;;;;;;5012113;28;20035;-65
2023/05/18 10:21:18;;;;;;;17.10;2.60;;;11.70;99.90;;;;;;4998681;28;20000;-66
2023/05/18 10:23:46;;;;;;;9.18;2.05;;;11.80;99.90;;;;;;4998686;28;20022;-65
2023/05/18 10:26:18;;;;;;;4.78;1.90;;;11.90;99.90;;;;;;4992780;28;20038;-66
2023/05/18 10:28:46;;;;;;;4.93;1.52;;;12.00;99.90;;;;;;4996889;28;20041;-66
2023/05/18 10:31:18;;;;;;;10.52;1.73;;;12.30;99.90;;;;;;5008700;28;20018;-66
2023/05/18 10:33:45;;;;;;;7.65;1.70;;;12.40;99.90;;;;;;4997863;28;20030;-66
2023/05/18 10:36:11;;;;;;;9.35;2.40;;;12.40;99.90;;;;;;4994645;28;20028;-67
2023/05/18 10:38:42;;;;;;;5.57;1.90;;;12.30;99.90;;;;;;5003592;28;20416;-66
2023/05/18 10:41:10;;;;;;;6.25;1.85;;;12.30;99.90;;;;;;4999531;28;20321;-65
2023/05/18 10:43:36;;;;;;;9.85;2.15;;;12.50;99.90;;;;;;4991098;28;20319;-89
2023/05/18 10:46:06;;;;;;;8.80;2.33;;;12.50;99.90;;;;;;4991803;28;20077;-66
2023/05/18 10:48:37;;;;;;;7.18;1.77;;;12.60;99.90;;;;;;4986072;28;20317;-66
2023/05/18 10:51:05;;;;;;;4.40;1.63;;;12.70;99.90;;;;;;4996926;28;20022;-79
2023/05/18 10:53:32;;;;;;;10.55;2.55;;;12.70;99.90;;;;;;5006362;28;20040;-65
2023/05/18 10:55:58;;;;;;;4.40;2.10;;;12.40;99.90;;;;;;5002533;28;20033;-66
2023/05/18 10:58:29;;;;;;;9.45;1.75;;;12.30;99.90;;;;;;4999552;28;20061;-85
2023/05/18 11:01:01;;;;;;;5.05;1.60;;;12.20;99.90;;;;;;4988705;28;20039;-83
2023/05/18 11:03:30;;;;;;;8.40;2.20;;;12.40;99.90;;;;;;4990659;28;20118;-84
2023/05/18 11:06:03;;;;;;;8.90;2.47;;;12.50;99.90;;;;;;4997939;28;20039;-66
2023/05/18 11:08:28;;;;;;;10.05;2.35;;;12.50;99.90;;;;;;4992561;28;20023;-66
2023/05/18 11:11:03;;;;;;;7.70;2.23;;;12.60;99.90;;;;;;4995636;28;20030;-65
2023/05/18 11:13:31;;;;;;;6.10;1.92;;;12.70;99.90;;;;;;5011311;28;20045;-68
2023/05/18 11:15:58;;;;;;;12.18;2.45;;;12.60;99.90;;;;;;5008943;28;20134;-66
2023/05/18 11:18:40;;;;;;;;;;;12.50;99.90;;;;;;4991042;28;20030;-65
2023/05/18 11:21:33;;;;;;;7.20;2.22;;;12.40;99.90;;;;;;4991847;28;19966;-67
2023/05/18 11:24:31;;;;;;;6.22;2.00;;;12.20;99.90;;;;;;4991780;28;20040;-66
2023/05/18 11:27:06;;;;;;;4.25;2.25;;;12.40;99.90;;;;;;4984996;28;20027;-73
2023/05/18 11:29:41;;;;;;;4.03;2.10;;;12.50;99.90;;;;;;4985068;28;20317;-84
2023/05/18 11:32:25;;;;;;;6.00;2.75;;;12.70;99.90;;;;;;4997742;28;20022;-67
2023/05/18 11:34:52;;;;;;;7.43;2.28;;;13.00;99.90;;;;;;5000081;28;20463;-66
2023/05/18 11:37:36;;;;;;;8.77;2.50;;;13.10;99.90;;;;;;5001725;28;20035;-66
2023/05/18 11:40:32;;;;;;;6.57;2.40;;;13.10;99.90;;;;;;5001683;28;20370;-90
2023/05/18 11:42:58;;;;;;;10.25;2.67;;;13.10;99.90;;;;;;5006647;28;20034;-82
2023/05/18 11:45:24;;;;;;;3.95;1.92;;;13.00;99.90;;;;;;4998030;28;20039;-83
2023/05/18 11:48:00;;;;;;;5.45;2.30;;;13.00;99.90;;;;;;4998856;28;20030;-89
2023/05/18 11:50:26;;;;;;;6.43;2.07;;;12.90;99.90;;;;;;4998219;28;20061;-91
2023/05/18 11:52:52;;;;;;;13.30;2.60;;;12.90;99.90;;;;;;4998212;28;20022;-65
2023/05/18 11:55:19;;;;;;;4.90;2.37;;;13.00;99.90;;;;;;4996970;28;20050;-66
2023/05/18 11:57:50;;;;;;;5.40;2.05;;;12.90;99.90;;;;;;4997424;28;20287;-66
2023/05/18 12:00:18;;;;;;;8.77;2.05;;;12.80;99.90;;;;;;4997496;28;20031;-67
2023/05/18 12:02:45;;;;;;;2.40;1.30;;;12.90;99.90;;;;;;4998034;28;20026;-67
2023/05/18 12:05:11;;;;;;;5.95;2.30;;;12.90;99.90;;;;;;5012098;28;20046;-68
2023/05/18 12:07:38;;;;;;;6.53;2.17;;;13.00;99.90;;;;;;4997600;28;20313;-66
2023/05/18 12:10:07;;;;;;;5.53;2.30;;;13.20;99.90;;;;;;5013407;28;20117;-91
2023/05/18 12:12:34;;;;;;;9.60;2.17;;;13.30;99.90;;;;;;4997146;28;20484;-66
2023/05/18 12:15:04;;;;;;;6.55;2.58;;;13.50;99.90;;;;;;4997398;28;20351;-66
2023/05/18 12:17:47;;;;;;;3.90;2.28;;;13.70;99.90;;;;;;4996994;28;20062;-82
2023/05/18 12:20:18;;;;;;;6.82;2.00;;;13.80;99.90;;;;;;4998238;28;20014;-81
2023/05/18 12:22:49;;;;;;;8.43;2.53;;;13.80;99.90;;;;;;4997604;28;20422;-89
2023/05/18 12:25:15;;;;;;;4.65;2.10;;;13.60;99.90;;;;;;4998136;28;20422;-86
2023/05/18 12:27:42;;;;;;;6.95;2.67;;;13.60;99.90;;;;;;4997540;28;20034;-89
2023/05/18 12:30:15;;;;;;;5.00;2.22;;;13.70;99.90;;;;;;4998195;28;20317;-87
2023/05/18 12:32:46;;;;;;;7.22;2.25;;;13.80;99.90;;;;;;4998119;28;20034;-88
2023/05/18 12:35:12;;;;;;;5.93;2.30;;;14.00;99.90;;;;;;4989734;28;20034;-90
2023/05/18 12:37:46;;;;;;;7.13;2.22;;;14.00;99.90;;;;;;4997553;28;20053;-85
2023/05/18 12:40:13;;;;;;;5.88;2.47;;;14.10;99.90;;;;;;5002312;28;20045;-83
2023/05/18 12:42:49;;;;;;;8.85;2.35;;;14.00;99.90;;;;;;4994183;28;20109;-68
2023/05/18 12:45:15;;;;;;;5.40;2.53;;;13.80;99.90;;;;;;4994569;28;20056;-67
2023/05/18 12:47:41;;;;;;;9.83;2.33;;;14.00;99.90;;;;;;4993626;28;20403;-67
2023/05/18 12:50:08;;;;;;;5.78;2.10;;;14.30;99.90;;;;;;4993808;28;20033;-79
2023/05/18 12:52:33;;;;;;;7.93;2.40;;;14.20;99.90;;;;;;4998350;28;20051;-87
2023/05/18 12:55:00;;;;;;;8.80;2.27;;;14.40;99.90;;;;;;4991671;28;20463;-69
2023/05/18 12:57:26;;;;;;;3.65;1.85;;;14.40;99.90;;;;;;4986488;28;20112;-66